sensor_id;sensor_type;location;lat;lon;timestamp;P1;durP1;ratioP1;P2;durP2;ratioP2
29214;SDS011;16252;49.816;7.964;2022-07-09T00:01:47;2.40;;;1.50;;
29214;SDS011;16252;49.816;7.964;2022-07-09T00:06:40;2.22;;;1.48;;
29214;SDS011;16252;49.816;7.964;2022-07-09T00:09:05;5.63;;;1.48;;
29214;SDS011;16252;49.816;7.964;2022-07-09T00:11:30;1.83;;;1.35;;
29214;SDS011;16252;49.816;7.964;2022-07-09T00:13:56;2.13;;;1.63;;
29214;SDS011;16252;49.816;7.964;2022-07-09T00:16:21;2.28;;;1.35;;
29214;SDS011;16252;49.816;7.964;2022-07-09T00:18:46;1.60;;;1.30;;
29214;SDS011;16252;49.816;7.964;2022-07-09T00:21:11;2.45;;;1.20;;
29214;SDS011;16252;49.816;7.964;2022-07-09T00:23:37;2.05;;;1.40;;
29214;SDS011;16252;49.816;7.964;2022-07-09T00:26:02;2.05;;;1.13;;
29214;SDS011;16252;49.816;7.964;2022-07-09T00:28:27;1.85;;;1.30;;
29214;SDS011;16252;49.816;7.964;2022-07-09T00:30:53;1.80;;;1.25;;
29214;SDS011;16252;49.816;7.964;2022-07-09T00:33:18;1.38;;;1.23;;
29214;SDS011;16252;49.816;7.964;2022-07-09T00:35:43;2.05;;;1.40;;
29214;SDS011;16252;49.816;7.964;2022-07-09T00:38:09;1.70;;;1.38;;
29214;SDS011;16252;49.816;7.964;2022-07-09T00:40:34;1.20;;;1.10;;
29214;SDS011;16252;49.816;7.964;2022-07-09T00:42:59;2.63;;;1.55;;
29214;SDS011;16252;49.816;7.964;2022-07-09T00:45:25;1.48;;;1.38;;
29214;SDS011;16252;49.816;7.964;2022-07-09T00:47:51;1.48;;;1.02;;
29214;SDS011;16252;49.816;7.964;2022-07-09T00:50:16;2.08;;;1.40;;
29214;SDS011;16252;49.816;7.964;2022-07-09T00:52:41;2.90;;;1.40;;
29214;SDS011;16252;49.816;7.964;2022-07-09T00:55:08;2.08;;;1.30;;
29214;SDS011;16252;49.816;7.964;2022-07-09T00:57:34;1.40;;;1.20;;
29214;SDS011;16252;49.816;7.964;2022-07-09T01:00:00;2.78;;;1.50;;
29214;SDS011;16252;49.816;7.964;2022-07-09T01:02:26;2.90;;;1.63;;
29214;SDS011;16252;49.816;7.964;2022-07-09T01:04:51;1.83;;;1.30;;
29214;SDS011;16252;49.816;7.964;2022-07-09T01:07:17;1.98;;;1.30;;
29214;SDS011;16252;49.816;7.964;2022-07-09T01:09:43;1.48;;;1.10;;
29214;SDS011;16252;49.816;7.964;2022-07-09T01:12:08;1.70;;;1.30;;
29214;SDS011;16252;49.816;7.964;2022-07-09T01:14:34;1.20;;;1.10;;
29214;SDS011;16252;49.816;7.964;2022-07-09T01:17:00;1.30;;;1.20;;
29214;SDS011;16252;49.816;7.964;2022-07-09T01:19:27;1.30;;;1.20;;
29214;SDS011;16252;49.816;7.964;2022-07-09T01:21:54;1.60;;;1.50;;
29214;SDS011;16252;49.816;7.964;2022-07-09T01:24:20;1.83;;;1.30;;
29214;SDS011;16252;49.816;7.964;2022-07-09T01:26:45;1.83;;;1.30;;
29214;SDS011;16252;49.816;7.964;2022-07-09T01:29:11;2.78;;;1.48;;
29214;SDS011;16252;49.816;7.964;2022-07-09T01:31:37;1.58;;;1.20;;
29214;SDS011;16252;49.816;7.964;2022-07-09T01:34:02;1.38;;;1.25;;
29214;SDS011;16252;49.816;7.964;2022-07-09T01:36:28;1.50;;;1.40;;
29214;SDS011;16252;49.816;7.964;2022-07-09T01:38:53;2.25;;;1.45;;
29214;SDS011;16252;49.816;7.964;2022-07-09T01:41:18;1.83;;;1.15;;
29214;SDS011;16252;49.816;7.964;2022-07-09T01:43:43;1.90;;;1.38;;
29214;SDS011;16252;49.816;7.964;2022-07-09T01:46:09;3.10;;;1.40;;
29214;SDS011;16252;49.816;7.964;2022-07-09T01:48:34;2.25;;;1.45;;
29214;SDS011;16252;49.816;7.964;2022-07-09T01:51:00;3.95;;;1.55;;
29214;SDS011;16252;49.816;7.964;2022-07-09T01:53:26;1.25;;;1.15;;
29214;SDS011;16252;49.816;7.964;2022-07-09T01:55:51;2.25;;;1.70;;
29214;SDS011;16252;49.816;7.964;2022-07-09T01:58:16;1.52;;;1.30;;
29214;SDS011;16252;49.816;7.964;2022-07-09T02:00:42;2.15;;;1.63;;
29214;SDS011;16252;49.816;7.964;2022-07-09T02:03:07;2.40;;;1.58;;
29214;SDS011;16252;49.816;7.964;2022-07-09T02:05:32;1.98;;;1.40;;
29214;SDS011;16252;49.816;7.964;2022-07-09T02:07:57;1.70;;;1.55;;
29214;SDS011;16252;49.816;7.964;2022-07-09T02:10:23;4.15;;;1.42;;
29214;SDS011;16252;49.816;7.964;2022-07-09T02:12:48;2.45;;;1.52;;
29214;SDS011;16252;49.816;7.964;2022-07-09T02:15:13;1.83;;;1.60;;
29214;SDS011;16252;49.816;7.964;2022-07-09T02:17:39;2.30;;;1.70;;
29214;SDS011;16252;49.816;7.964;2022-07-09T02:20:04;1.85;;;1.63;;
29214;SDS011;16252;49.816;7.964;2022-07-09T02:22:30;1.33;;;1.15;;
29214;SDS011;16252;49.816;7.964;2022-07-09T02:24:56;1.67;;;1.58;;
29214;SDS011;16252;49.816;7.964;2022-07-09T02:27:21;2.78;;;1.50;;
29214;SDS011;16252;49.816;7.964;2022-07-09T02:29:47;1.83;;;1.50;;
29214;SDS011;16252;49.816;7.964;2022-07-09T02:32:12;1.73;;;1.58;;
29214;SDS011;16252;49.816;7.964;2022-07-09T02:34:37;1.67;;;1.58;;
29214;SDS011;16252;49.816;7.964;2022-07-09T02:37:04;2.53;;;1.85;;
29214;SDS011;16252;49.816;7.964;2022-07-09T02:39:30;1.40;;;1.25;;
29214;SDS011;16252;49.816;7.964;2022-07-09T02:41:55;1.92;;;1.30;;
29214;SDS011;16252;49.816;7.964;2022-07-09T02:44:20;2.72;;;1.38;;
29214;SDS011;16252;49.816;7.964;2022-07-09T02:46:47;1.63;;;1.52;;
29214;SDS011;16252;49.816;7.964;2022-07-09T02:49:12;4.47;;;1.40;;
29214;SDS011;16252;49.816;7.964;2022-07-09T02:51:37;1.77;;;1.25;;
29214;SDS011;16252;49.816;7.964;2022-07-09T02:54:03;1.73;;;1.40;;
29214;SDS011;16252;49.816;7.964;2022-07-09T02:56:29;1.75;;;1.55;;
29214;SDS011;16252;49.816;7.964;2022-07-09T02:58:54;1.80;;;1.30;;
29214;SDS011;16252;49.816;7.964;2022-07-09T03:01:19;1.83;;;1.50;;
29214;SDS011;16252;49.816;7.964;2022-07-09T03:03:45;2.30;;;1.40;;
29214;SDS011;16252;49.816;7.964;2022-07-09T03:06:11;2.25;;;1.40;;
29214;SDS011;16252;49.816;7.964;2022-07-09T03:08:37;3.58;;;1.55;;
29214;SDS011;16252;49.816;7.964;2022-07-09T03:11:03;2.33;;;1.42;;
29214;SDS011;16252;49.816;7.964;2022-07-09T03:13:31;1.92;;;1.73;;
29214;SDS011;16252;49.816;7.964;2022-07-09T03:15:57;1.67;;;1.30;;
29214;SDS011;16252;49.816;7.964;2022-07-09T03:18:23;1.88;;;1.63;;
29214;SDS011;16252;49.816;7.964;2022-07-09T03:20:48;3.38;;;1.45;;
29214;SDS011;16252;49.816;7.964;2022-07-09T03:23:13;1.27;;;1.17;;
29214;SDS011;16252;49.816;7.964;2022-07-09T03:25:39;3.05;;;1.90;;
29214;SDS011;16252;49.816;7.964;2022-07-09T03:28:04;2.30;;;1.50;;
29214;SDS011;16252;49.816;7.964;2022-07-09T03:30:30;2.20;;;1.35;;
29214;SDS011;16252;49.816;7.964;2022-07-09T03:32:55;4.03;;;1.40;;
29214;SDS011;16252;49.816;7.964;2022-07-09T03:35:21;2.65;;;1.75;;
29214;SDS011;16252;49.816;7.964;2022-07-09T03:37:46;2.08;;;1.45;;
29214;SDS011;16252;49.816;7.964;2022-07-09T03:40:11;1.95;;;1.30;;
29214;SDS011;16252;49.816;7.964;2022-07-09T03:42:37;1.50;;;1.33;;
29214;SDS011;16252;49.816;7.964;2022-07-09T03:45:02;2.72;;;1.90;;
29214;SDS011;16252;49.816;7.964;2022-07-09T03:47:27;2.08;;;1.27;;
29214;SDS011;16252;49.816;7.964;2022-07-09T03:49:53;2.30;;;1.27;;
29214;SDS011;16252;49.816;7.964;2022-07-09T03:52:18;2.05;;;1.52;;
29214;SDS011;16252;49.816;7.964;2022-07-09T03:54:43;2.63;;;1.55;;
29214;SDS011;16252;49.816;7.964;2022-07-09T03:57:09;1.77;;;1.30;;
29214;SDS011;16252;49.816;7.964;2022-07-09T03:59:34;1.77;;;1.55;;
29214;SDS011;16252;49.816;7.964;2022-07-09T04:02:00;2.13;;;1.38;;
29214;SDS011;16252;49.816;7.964;2022-07-09T04:04:25;1.70;;;1.60;;
29214;SDS011;16252;49.816;7.964;2022-07-09T04:06:51;1.45;;;1.33;;
29214;SDS011;16252;49.816;7.964;2022-07-09T04:09:16;2.67;;;1.65;;
29214;SDS011;16252;49.816;7.964;2022-07-09T04:11:41;2.38;;;1.33;;
29214;SDS011;16252;49.816;7.964;2022-07-09T04:14:06;1.63;;;1.52;;
29214;SDS011;16252;49.816;7.964;2022-07-09T04:16:32;1.40;;;1.30;;
29214;SDS011;16252;49.816;7.964;2022-07-09T04:18:57;1.65;;;1.42;;
29214;SDS011;16252;49.816;7.964;2022-07-09T04:21:22;2.30;;;1.40;;
29214;SDS011;16252;49.816;7.964;2022-07-09T04:23:48;2.00;;;1.70;;
29214;SDS011;16252;49.816;7.964;2022-07-09T04:26:14;1.50;;;1.35;;
29214;SDS011;16252;49.816;7.964;2022-07-09T04:28:40;1.85;;;1.45;;
29214;SDS011;16252;49.816;7.964;2022-07-09T04:31:05;4.38;;;1.40;;
29214;SDS011;16252;49.816;7.964;2022-07-09T04:33:30;2.95;;;1.63;;
29214;SDS011;16252;49.816;7.964;2022-07-09T04:35:56;1.65;;;1.30;;
29214;SDS011;16252;49.816;7.964;2022-07-09T04:38:21;1.40;;;1.30;;
29214;SDS011;16252;49.816;7.964;2022-07-09T04:40:47;2.78;;;1.80;;
29214;SDS011;16252;49.816;7.964;2022-07-09T04:43:12;2.75;;;1.50;;
29214;SDS011;16252;49.816;7.964;2022-07-09T04:45:37;2.70;;;1.65;;
29214;SDS011;16252;49.816;7.964;2022-07-09T04:48:03;1.80;;;1.60;;
29214;SDS011;16252;49.816;7.964;2022-07-09T04:50:28;2.92;;;1.60;;
29214;SDS011;16252;49.816;7.964;2022-07-09T04:52:54;1.90;;;1.48;;
29214;SDS011;16252;49.816;7.964;2022-07-09T04:55:19;2.55;;;1.48;;
29214;SDS011;16252;49.816;7.964;2022-07-09T04:57:46;1.77;;;1.48;;
29214;SDS011;16252;49.816;7.964;2022-07-09T05:00:11;2.15;;;1.42;;
29214;SDS011;16252;49.816;7.964;2022-07-09T05:02:37;6.25;;;2.15;;
29214;SDS011;16252;49.816;7.964;2022-07-09T05:05:03;1.83;;;1.38;;
29214;SDS011;16252;49.816;7.964;2022-07-09T05:07:31;2.25;;;1.23;;
29214;SDS011;16252;49.816;7.964;2022-07-09T05:09:56;1.42;;;1.30;;
29214;SDS011;16252;49.816;7.964;2022-07-09T05:12:21;1.30;;;1.20;;
29214;SDS011;16252;49.816;7.964;2022-07-09T05:14:47;1.83;;;1.25;;
29214;SDS011;16252;49.816;7.964;2022-07-09T05:17:12;1.92;;;1.58;;
29214;SDS011;16252;49.816;7.964;2022-07-09T05:19:37;2.83;;;1.60;;
29214;SDS011;16252;49.816;7.964;2022-07-09T05:22:03;1.55;;;1.30;;
29214;SDS011;16252;49.816;7.964;2022-07-09T05:24:28;2.13;;;1.90;;
29214;SDS011;16252;49.816;7.964;2022-07-09T05:26:53;2.10;;;1.67;;
29214;SDS011;16252;49.816;7.964;2022-07-09T05:29:19;4.07;;;1.60;;
29214;SDS011;16252;49.816;7.964;2022-07-09T05:31:47;2.65;;;1.85;;
29214;SDS011;16252;49.816;7.964;2022-07-09T05:34:12;2.75;;;1.83;;
29214;SDS011;16252;49.816;7.964;2022-07-09T05:36:38;2.47;;;1.65;;
29214;SDS011;16252;49.816;7.964;2022-07-09T05:39:03;1.60;;;1.50;;
29214;SDS011;16252;49.816;7.964;2022-07-09T05:41:29;4.70;;;1.80;;
29214;SDS011;16252;49.816;7.964;2022-07-09T05:43:54;2.78;;;1.70;;
29214;SDS011;16252;49.816;7.964;2022-07-09T05:46:19;1.63;;;1.50;;
29214;SDS011;16252;49.816;7.964;2022-07-09T05:48:45;1.98;;;1.77;;
29214;SDS011;16252;49.816;7.964;2022-07-09T05:51:11;1.80;;;1.60;;
29214;SDS011;16252;49.816;7.964;2022-07-09T05:53:36;4.57;;;1.83;;
29214;SDS011;16252;49.816;7.964;2022-07-09T05:56:01;1.60;;;1.50;;
29214;SDS011;16252;49.816;7.964;2022-07-09T05:58:27;1.63;;;1.52;;
29214;SDS011;16252;49.816;7.964;2022-07-09T06:00:52;1.67;;;1.58;;
29214;SDS011;16252;49.816;7.964;2022-07-09T06:03:17;2.38;;;1.52;;
29214;SDS011;16252;49.816;7.964;2022-07-09T06:05:43;3.50;;;1.65;;
29214;SDS011;16252;49.816;7.964;2022-07-09T06:08:08;3.17;;;1.60;;
29214;SDS011;16252;49.816;7.964;2022-07-09T06:10:34;2.80;;;1.60;;
29214;SDS011;16252;49.816;7.964;2022-07-09T06:12:59;1.88;;;1.77;;
29214;SDS011;16252;49.816;7.964;2022-07-09T06:15:25;2.85;;;1.80;;
29214;SDS011;16252;49.816;7.964;2022-07-09T06:17:50;1.90;;;1.40;;
29214;SDS011;16252;49.816;7.964;2022-07-09T06:23:13;3.58;;;1.90;;
29214;SDS011;16252;49.816;7.964;2022-07-09T06:25:41;4.53;;;2.10;;
29214;SDS011;16252;49.816;7.964;2022-07-09T06:28:10;3.67;;;1.83;;
29214;SDS011;16252;49.816;7.964;2022-07-09T06:30:39;3.10;;;1.88;;
29214;SDS011;16252;49.816;7.964;2022-07-09T06:33:04;2.08;;;1.90;;
29214;SDS011;16252;49.816;7.964;2022-07-09T06:35:33;2.35;;;1.30;;
29214;SDS011;16252;49.816;7.964;2022-07-09T06:38:01;1.83;;;1.50;;
29214;SDS011;16252;49.816;7.964;2022-07-09T06:40:39;2.08;;;1.40;;
29214;SDS011;16252;49.816;7.964;2022-07-09T06:43:21;1.42;;;1.10;;
29214;SDS011;16252;49.816;7.964;2022-07-09T06:45:50;1.70;;;1.27;;
29214;SDS011;16252;49.816;7.964;2022-07-09T06:48:22;1.88;;;1.35;;
29214;SDS011;16252;49.816;7.964;2022-07-09T06:50:47;3.65;;;1.33;;
29214;SDS011;16252;49.816;7.964;2022-07-09T06:53:13;1.50;;;1.40;;
29214;SDS011;16252;49.816;7.964;2022-07-09T06:55:41;4.45;;;1.52;;
29214;SDS011;16252;49.816;7.964;2022-07-09T06:58:14;2.90;;;1.40;;
29214;SDS011;16252;49.816;7.964;2022-07-09T07:01:10;1.70;;;1.10;;
29214;SDS011;16252;49.816;7.964;2022-07-09T07:03:38;4.93;;;1.40;;
29214;SDS011;16252;49.816;7.964;2022-07-09T07:06:04;1.95;;;1.20;;
29214;SDS011;16252;49.816;7.964;2022-07-09T07:08:37;2.38;;;1.30;;
29214;SDS011;16252;49.816;7.964;2022-07-09T07:11:02;3.30;;;1.45;;
29214;SDS011;16252;49.816;7.964;2022-07-09T07:13:28;2.03;;;1.77;;
29214;SDS011;16252;49.816;7.964;2022-07-09T07:16:04;3.90;;;1.27;;
29214;SDS011;16252;49.816;7.964;2022-07-09T07:18:40;2.10;;;1.35;;
29214;SDS011;16252;49.816;7.964;2022-07-09T07:21:05;2.90;;;1.60;;
29214;SDS011;16252;49.816;7.964;2022-07-09T07:23:31;1.50;;;1.30;;
29214;SDS011;16252;49.816;7.964;2022-07-09T07:25:59;3.13;;;1.60;;
29214;SDS011;16252;49.816;7.964;2022-07-09T07:28:28;2.92;;;1.40;;
29214;SDS011;16252;49.816;7.964;2022-07-09T07:30:56;3.58;;;1.48;;
29214;SDS011;16252;49.816;7.964;2022-07-09T07:33:22;1.48;;;1.17;;
29214;SDS011;16252;49.816;7.964;2022-07-09T07:35:47;2.33;;;1.65;;
29214;SDS011;16252;49.816;7.964;2022-07-09T07:38:18;2.03;;;1.38;;
29214;SDS011;16252;49.816;7.964;2022-07-09T07:40:53;5.78;;;1.88;;
29214;SDS011;16252;49.816;7.964;2022-07-09T07:43:31;2.22;;;1.58;;
29214;SDS011;16252;49.816;7.964;2022-07-09T07:46:10;2.28;;;1.38;;
29214;SDS011;16252;49.816;7.964;2022-07-09T07:49:04;3.72;;;1.27;;
29214;SDS011;16252;49.816;7.964;2022-07-09T07:51:40;1.42;;;1.20;;
29214;SDS011;16252;49.816;7.964;2022-07-09T07:54:14;1.60;;;1.00;;
29214;SDS011;16252;49.816;7.964;2022-07-09T07:56:45;3.58;;;1.30;;
29214;SDS011;16252;49.816;7.964;2022-07-09T07:59:30;2.90;;;1.40;;
29214;SDS011;16252;49.816;7.964;2022-07-09T08:02:24;3.00;;;1.42;;
29214;SDS011;16252;49.816;7.964;2022-07-09T08:13:39;2.63;;;1.30;;
29214;SDS011;16252;49.816;7.964;2022-07-09T08:16:05;1.55;;;1.13;;
29214;SDS011;16252;49.816;7.964;2022-07-09T08:18:30;5.63;;;1.55;;
29214;SDS011;16252;49.816;7.964;2022-07-09T08:20:56;3.00;;;1.30;;
29214;SDS011;16252;49.816;7.964;2022-07-09T08:23:21;2.88;;;1.30;;
29214;SDS011;16252;49.816;7.964;2022-07-09T08:25:47;1.85;;;1.38;;
29214;SDS011;16252;49.816;7.964;2022-07-09T08:28:12;1.40;;;1.25;;
29214;SDS011;16252;49.816;7.964;2022-07-09T08:30:37;2.67;;;1.33;;
29214;SDS011;16252;49.816;7.964;2022-07-09T08:33:03;2.03;;;1.20;;
29214;SDS011;16252;49.816;7.964;2022-07-09T08:35:28;3.28;;;1.17;;
29214;SDS011;16252;49.816;7.964;2022-07-09T08:37:53;2.87;;;1.47;;
29214;SDS011;16252;49.816;7.964;2022-07-09T08:40:20;1.85;;;1.10;;
29214;SDS011;16252;49.816;7.964;2022-07-09T08:42:47;3.22;;;1.52;;
29214;SDS011;16252;49.816;7.964;2022-07-09T08:45:13;1.92;;;1.30;;
29214;SDS011;16252;49.816;7.964;2022-07-09T08:47:39;2.25;;;1.20;;
29214;SDS011;16252;49.816;7.964;2022-07-09T08:50:05;2.22;;;1.00;;
29214;SDS011;16252;49.816;7.964;2022-07-09T08:52:31;2.08;;;1.35;;
29214;SDS011;16252;49.816;7.964;2022-07-09T08:54:57;2.80;;;1.27;;
29214;SDS011;16252;49.816;7.964;2022-07-09T08:57:22;2.50;;;1.10;;
29214;SDS011;16252;49.816;7.964;2022-07-09T08:59:48;1.77;;;1.20;;
29214;SDS011;16252;49.816;7.964;2022-07-09T09:02:13;1.80;;;1.10;;
29214;SDS011;16252;49.816;7.964;2022-07-09T09:04:39;1.67;;;1.13;;
29214;SDS011;16252;49.816;7.964;2022-07-09T09:07:38;3.03;;;1.52;;
29214;SDS011;16252;49.816;7.964;2022-07-09T09:09:56;1.92;;;1.15;;
29214;SDS011;16252;49.816;7.964;2022-07-09T09:12:26;2.22;;;1.20;;
29214;SDS011;16252;49.816;7.964;2022-07-09T09:14:53;1.83;;;1.08;;
29214;SDS011;16252;49.816;7.964;2022-07-09T09:17:18;1.67;;;0.90;;
29214;SDS011;16252;49.816;7.964;2022-07-09T09:19:43;1.53;;;0.83;;
29214;SDS011;16252;49.816;7.964;2022-07-09T09:22:08;1.45;;;0.85;;
29214;SDS011;16252;49.816;7.964;2022-07-09T09:24:34;1.90;;;1.20;;
29214;SDS011;16252;49.816;7.964;2022-07-09T09:27:00;1.58;;;1.00;;
29214;SDS011;16252;49.816;7.964;2022-07-09T09:29:26;1.45;;;1.00;;
29214;SDS011;16252;49.816;7.964;2022-07-09T09:31:52;2.22;;;1.05;;
29214;SDS011;16252;49.816;7.964;2022-07-09T09:34:18;3.95;;;1.50;;
29214;SDS011;16252;49.816;7.964;2022-07-09T09:36:46;0.95;;;0.88;;
29214;SDS011;16252;49.816;7.964;2022-07-09T09:39:26;1.75;;;1.02;;
29214;SDS011;16252;49.816;7.964;2022-07-09T09:44:23;1.63;;;0.80;;
29214;SDS011;16252;49.816;7.964;2022-07-09T09:46:51;1.55;;;1.10;;
29214;SDS011;16252;49.816;7.964;2022-07-09T09:49:17;3.45;;;1.40;;
29214;SDS011;16252;49.816;7.964;2022-07-09T09:54:32;2.10;;;0.90;;
29214;SDS011;16252;49.816;7.964;2022-07-09T09:56:59;1.45;;;0.93;;
29214;SDS011;16252;49.816;7.964;2022-07-09T09:59:24;1.73;;;0.80;;
29214;SDS011;16252;49.816;7.964;2022-07-09T10:01:50;1.65;;;0.90;;
29214;SDS011;16252;49.816;7.964;2022-07-09T10:04:16;1.90;;;0.70;;
29214;SDS011;16252;49.816;7.964;2022-07-09T10:06:41;1.83;;;1.00;;
29214;SDS011;16252;49.816;7.964;2022-07-09T10:09:08;1.15;;;0.80;;
29214;SDS011;16252;49.816;7.964;2022-07-09T10:11:40;1.17;;;0.70;;
29214;SDS011;16252;49.816;7.964;2022-07-09T10:14:07;1.75;;;0.90;;
29214;SDS011;16252;49.816;7.964;2022-07-09T10:16:34;2.05;;;0.95;;
29214;SDS011;16252;49.816;7.964;2022-07-09T10:19:00;1.05;;;0.93;;
29214;SDS011;16252;49.816;7.964;2022-07-09T10:21:32;1.00;;;0.68;;
29214;SDS011;16252;49.816;7.964;2022-07-09T10:23:59;0.77;;;0.68;;
29214;SDS011;16252;49.816;7.964;2022-07-09T10:26:34;1.05;;;0.70;;
29214;SDS011;16252;49.816;7.964;2022-07-09T10:29:26;0.80;;;0.70;;
29214;SDS011;16252;49.816;7.964;2022-07-09T10:31:53;1.65;;;0.70;;
29214;SDS011;16252;49.816;7.964;2022-07-09T10:34:43;1.08;;;0.60;;
29214;SDS011;16252;49.816;7.964;2022-07-09T10:37:12;0.57;;;0.50;;
29214;SDS011;16252;49.816;7.964;2022-07-09T10:39:38;0.70;;;0.47;;
29214;SDS011;16252;49.816;7.964;2022-07-09T10:42:04;0.93;;;0.52;;
29214;SDS011;16252;49.816;7.964;2022-07-09T10:44:42;0.90;;;0.40;;
29214;SDS011;16252;49.816;7.964;2022-07-09T10:47:07;1.50;;;0.40;;
29214;SDS011;16252;49.816;7.964;2022-07-09T10:49:34;1.00;;;0.50;;
29214;SDS011;16252;49.816;7.964;2022-07-09T10:51:59;0.95;;;0.50;;
29214;SDS011;16252;49.816;7.964;2022-07-09T10:54:25;0.70;;;0.57;;
29214;SDS011;16252;49.816;7.964;2022-07-09T10:56:52;1.45;;;0.60;;
29214;SDS011;16252;49.816;7.964;2022-07-09T10:59:18;0.82;;;0.40;;
29214;SDS011;16252;49.816;7.964;2022-07-09T11:01:43;1.92;;;0.40;;
29214;SDS011;16252;49.816;7.964;2022-07-09T11:04:09;0.50;;;0.40;;
29214;SDS011;16252;49.816;7.964;2022-07-09T11:06:46;0.90;;;0.60;;
29214;SDS011;16252;49.816;7.964;2022-07-09T11:09:15;2.58;;;0.45;;
29214;SDS011;16252;49.816;7.964;2022-07-09T11:11:44;0.70;;;0.52;;
29214;SDS011;16252;49.816;7.964;2022-07-09T11:14:10;1.05;;;0.63;;
29214;SDS011;16252;49.816;7.964;2022-07-09T11:16:36;0.60;;;0.60;;
29214;SDS011;16252;49.816;7.964;2022-07-09T11:19:18;1.05;;;0.60;;
29214;SDS011;16252;49.816;7.964;2022-07-09T11:21:44;1.10;;;0.70;;
29214;SDS011;16252;49.816;7.964;2022-07-09T11:24:17;1.10;;;0.50;;
29214;SDS011;16252;49.816;7.964;2022-07-09T11:26:45;2.05;;;0.50;;
29214;SDS011;16252;49.816;7.964;2022-07-09T11:29:11;0.73;;;0.60;;
29214;SDS011;16252;49.816;7.964;2022-07-09T11:31:45;0.60;;;0.60;;
29214;SDS011;16252;49.816;7.964;2022-07-09T11:34:12;0.77;;;0.50;;
29214;SDS011;16252;49.816;7.964;2022-07-09T11:36:38;0.60;;;0.60;;
29214;SDS011;16252;49.816;7.964;2022-07-09T11:39:04;3.58;;;0.90;;
29214;SDS011;16252;49.816;7.964;2022-07-09T11:41:39;1.83;;;0.95;;
29214;SDS011;16252;49.816;7.964;2022-07-09T11:44:08;1.93;;;0.80;;
29214;SDS011;16252;49.816;7.964;2022-07-09T11:46:34;0.73;;;0.63;;
29214;SDS011;16252;49.816;7.964;2022-07-09T11:48:59;1.25;;;0.90;;
29214;SDS011;16252;49.816;7.964;2022-07-09T11:51:31;0.98;;;0.88;;
29214;SDS011;16252;49.816;7.964;2022-07-09T11:53:58;1.67;;;0.70;;
29214;SDS011;16252;49.816;7.964;2022-07-09T11:56:24;1.05;;;0.80;;
29214;SDS011;16252;49.816;7.964;2022-07-09T11:58:50;1.13;;;0.70;;
29214;SDS011;16252;49.816;7.964;2022-07-09T12:01:16;1.38;;;0.90;;
29214;SDS011;16252;49.816;7.964;2022-07-09T12:03:48;0.65;;;0.65;;
29214;SDS011;16252;49.816;7.964;2022-07-09T12:06:14;1.20;;;0.90;;
29214;SDS011;16252;49.816;7.964;2022-07-09T12:08:40;1.15;;;0.80;;
29214;SDS011;16252;49.816;7.964;2022-07-09T12:11:05;0.60;;;0.60;;
29214;SDS011;16252;49.816;7.964;2022-07-09T12:13:31;2.95;;;0.80;;
29214;SDS011;16252;49.816;7.964;2022-07-09T12:15:56;1.00;;;0.77;;
29214;SDS011;16252;49.816;7.964;2022-07-09T12:18:21;0.63;;;0.60;;
29214;SDS011;16252;49.816;7.964;2022-07-09T12:20:47;0.88;;;0.77;;
29214;SDS011;16252;49.816;7.964;2022-07-09T12:23:12;0.95;;;0.82;;
29214;SDS011;16252;49.816;7.964;2022-07-09T12:25:38;0.60;;;0.60;;
29214;SDS011;16252;49.816;7.964;2022-07-09T12:28:04;0.80;;;0.63;;
29214;SDS011;16252;49.816;7.964;2022-07-09T12:30:30;1.08;;;0.70;;
29214;SDS011;16252;49.816;7.964;2022-07-09T12:32:55;0.98;;;0.70;;
29214;SDS011;16252;49.816;7.964;2022-07-09T12:35:23;0.90;;;0.68;;
29214;SDS011;16252;49.816;7.964;2022-07-09T12:37:49;0.98;;;0.63;;
29214;SDS011;16252;49.816;7.964;2022-07-09T12:40:14;1.50;;;0.70;;
29214;SDS011;16252;49.816;7.964;2022-07-09T12:42:40;0.85;;;0.80;;
29214;SDS011;16252;49.816;7.964;2022-07-09T12:45:05;1.08;;;0.98;;
29214;SDS011;16252;49.816;7.964;2022-07-09T12:47:31;1.77;;;0.80;;
29214;SDS011;16252;49.816;7.964;2022-07-09T12:49:56;0.70;;;0.70;;
29214;SDS011;16252;49.816;7.964;2022-07-09T12:52:22;3.22;;;0.70;;
29214;SDS011;16252;49.816;7.964;2022-07-09T12:54:47;1.08;;;0.98;;
29214;SDS011;16252;49.816;7.964;2022-07-09T12:57:13;0.90;;;0.80;;
29214;SDS011;16252;49.816;7.964;2022-07-09T12:59:38;1.17;;;0.70;;
29214;SDS011;16252;49.816;7.964;2022-07-09T13:02:04;1.77;;;0.90;;
29214;SDS011;16252;49.816;7.964;2022-07-09T13:04:30;0.63;;;0.55;;
29214;SDS011;16252;49.816;7.964;2022-07-09T13:06:55;0.75;;;0.73;;
29214;SDS011;16252;49.816;7.964;2022-07-09T13:09:21;0.90;;;0.70;;
29214;SDS011;16252;49.816;7.964;2022-07-09T13:11:46;0.98;;;0.77;;
29214;SDS011;16252;49.816;7.964;2022-07-09T13:14:13;1.13;;;0.63;;
29214;SDS011;16252;49.816;7.964;2022-07-09T13:16:38;1.88;;;0.90;;
29214;SDS011;16252;49.816;7.964;2022-07-09T13:19:04;2.83;;;0.77;;
29214;SDS011;16252;49.816;7.964;2022-07-09T13:21:30;0.88;;;0.68;;
29214;SDS011;16252;49.816;7.964;2022-07-09T13:23:55;1.00;;;0.90;;
29214;SDS011;16252;49.816;7.964;2022-07-09T13:26:21;0.85;;;0.70;;
29214;SDS011;16252;49.816;7.964;2022-07-09T13:28:46;1.00;;;0.82;;
29214;SDS011;16252;49.816;7.964;2022-07-09T13:31:12;1.48;;;1.00;;
29214;SDS011;16252;49.816;7.964;2022-07-09T13:33:37;1.25;;;0.95;;
29214;SDS011;16252;49.816;7.964;2022-07-09T13:36:03;1.15;;;1.00;;
29214;SDS011;16252;49.816;7.964;2022-07-09T13:38:30;0.70;;;0.70;;
29214;SDS011;16252;49.816;7.964;2022-07-09T13:40:55;0.70;;;0.70;;
29214;SDS011;16252;49.816;7.964;2022-07-09T13:43:21;1.48;;;0.75;;
29214;SDS011;16252;49.816;7.964;2022-07-09T13:45:49;0.80;;;0.77;;
29214;SDS011;16252;49.816;7.964;2022-07-09T13:48:14;1.40;;;0.95;;
29214;SDS011;16252;49.816;7.964;2022-07-09T13:50:40;1.10;;;1.00;;
29214;SDS011;16252;49.816;7.964;2022-07-09T13:53:05;0.82;;;0.77;;
29214;SDS011;16252;49.816;7.964;2022-07-09T13:55:30;1.02;;;0.90;;
29214;SDS011;16252;49.816;7.964;2022-07-09T13:57:56;0.75;;;0.70;;
29214;SDS011;16252;49.816;7.964;2022-07-09T14:00:21;0.95;;;0.82;;
29214;SDS011;16252;49.816;7.964;2022-07-09T14:02:47;1.17;;;0.80;;
29214;SDS011;16252;49.816;7.964;2022-07-09T14:05:13;1.60;;;0.88;;
29214;SDS011;16252;49.816;7.964;2022-07-09T14:07:39;1.00;;;0.90;;
29214;SDS011;16252;49.816;7.964;2022-07-09T14:10:04;0.70;;;0.70;;
29214;SDS011;16252;49.816;7.964;2022-07-09T14:12:30;2.25;;;0.90;;
29214;SDS011;16252;49.816;7.964;2022-07-09T14:14:55;0.80;;;0.80;;
29214;SDS011;16252;49.816;7.964;2022-07-09T14:17:22;1.38;;;1.05;;
29214;SDS011;16252;49.816;7.964;2022-07-09T14:19:49;1.00;;;0.90;;
29214;SDS011;16252;49.816;7.964;2022-07-09T14:22:14;1.48;;;1.20;;
29214;SDS011;16252;49.816;7.964;2022-07-09T14:24:40;1.17;;;1.08;;
29214;SDS011;16252;49.816;7.964;2022-07-09T14:27:05;1.10;;;0.98;;
29214;SDS011;16252;49.816;7.964;2022-07-09T14:29:30;1.02;;;0.90;;
29214;SDS011;16252;49.816;7.964;2022-07-09T14:31:55;0.85;;;0.80;;
29214;SDS011;16252;49.816;7.964;2022-07-09T14:34:21;1.55;;;1.10;;
29214;SDS011;16252;49.816;7.964;2022-07-09T14:36:49;2.30;;;1.02;;
29214;SDS011;16252;49.816;7.964;2022-07-09T14:39:16;2.05;;;1.25;;
29214;SDS011;16252;49.816;7.964;2022-07-09T14:41:41;1.77;;;1.08;;
29214;SDS011;16252;49.816;7.964;2022-07-09T14:44:08;2.10;;;1.05;;
29214;SDS011;16252;49.816;7.964;2022-07-09T14:46:33;1.80;;;1.08;;
29214;SDS011;16252;49.816;7.964;2022-07-09T14:48:58;1.40;;;1.13;;
29214;SDS011;16252;49.816;7.964;2022-07-09T14:51:24;1.20;;;1.10;;
29214;SDS011;16252;49.816;7.964;2022-07-09T14:53:50;1.17;;;0.90;;
29214;SDS011;16252;49.816;7.964;2022-07-09T14:56:15;2.13;;;0.95;;
29214;SDS011;16252;49.816;7.964;2022-07-09T14:58:40;1.13;;;1.00;;
29214;SDS011;16252;49.816;7.964;2022-07-09T15:01:06;1.60;;;1.13;;
29214;SDS011;16252;49.816;7.964;2022-07-09T15:03:32;1.20;;;1.10;;
29214;SDS011;16252;49.816;7.964;2022-07-09T15:05:57;2.70;;;0.85;;